sensor_id;sensor_type;location;lat;lon;timestamp;pressure;altitude;pressure_sealevel;temperature;humidity
66396;BME280;53207;51.378;-1.342;2023-05-03T00:00:38;101410.10;;;22.12;36.05
66396;BME280;53207;51.378;-1.342;2023-05-03T00:03:05;101408.86;;;21.79;36.11
66396;BME280;53207;51.378;-1.342;2023-05-03T00:05:32;101406.01;;;22.01;36.11
66396;BME280;53207;51.378;-1.342;2023-05-03T00:08:00;101405.36;;;22.03;36.09
66396;BME280;53207;51.378;-1.342;2023-05-03T00:10:27;101407.74;;;22.01;36.13
66396;BME280;53207;51.378;-1.342;2023-05-03T00:12:54;101410.59;;;21.94;36.07
66396;BME280;53207;51.378;-1.342;2023-05-03T00:15:22;101413.02;;;21.91;36.10
66396;BME280;53207;51.378;-1.342;2023-05-03T00:17:49;101411.99;;;21.93;36.01
66396;BME280;53207;51.378;-1.342;2023-05-03T00:20:16;101405.22;;;21.55;36.11
66396;BME280;53207;51.378;-1.342;2023-05-03T00:22:44;101404.07;;;21.67;36.06
66396;BME280;53207;51.378;-1.342;2023-05-03T00:25:11;101405.73;;;21.85;36.20
66396;BME280;53207;51.378;-1.342;2023-05-03T00:27:38;101409.15;;;21.88;36.14
66396;BME280;53207;51.378;-1.342;2023-05-03T00:30:07;101407.72;;;21.77;36.34
66396;BME280;53207;51.378;-1.342;2023-05-03T00:32:34;101406.50;;;21.89;36.13
66396;BME280;53207;51.378;-1.342;2023-05-03T00:35:01;101404.61;;;21.84;36.21
66396;BME280;53207;51.378;-1.342;2023-05-03T00:37:28;101403.12;;;21.81;36.22
66396;BME280;53207;51.378;-1.342;2023-05-03T00:39:56;101401.81;;;21.76;36.27
66396;BME280;53207;51.378;-1.342;2023-05-03T00:42:23;101400.84;;;21.82;36.21
66396;BME280;53207;51.378;-1.342;2023-05-03T00:44:50;101400.48;;;21.85;36.17
66396;BME280;53207;51.378;-1.342;2023-05-03T00:47:17;101397.84;;;21.80;36.22
66396;BME280;53207;51.378;-1.342;2023-05-03T00:49:45;101396.21;;;21.75;36.27
66396;BME280;53207;51.378;-1.342;2023-05-03T00:52:12;101394.10;;;22.19;36.30
66396;BME280;53207;51.378;-1.342;2023-05-03T00:54:39;101390.73;;;21.74;36.23
66396;BME280;53207;51.378;-1.342;2023-05-03T00:57:07;101390.23;;;21.74;36.24
66396;BME280;53207;51.378;-1.342;2023-05-03T00:59:34;101388.75;;;21.79;36.08
66396;BME280;53207;51.378;-1.342;2023-05-03T01:02:01;101388.07;;;21.70;36.21
66396;BME280;53207;51.378;-1.342;2023-05-03T01:04:29;101387.79;;;21.71;36.18
66396;BME280;53207;51.378;-1.342;2023-05-03T01:07:05;101386.53;;;21.65;36.19
66396;BME280;53207;51.378;-1.342;2023-05-03T01:09:38;101382.16;;;21.70;36.18
66396;BME280;53207;51.378;-1.342;2023-05-03T01:12:18;101382.48;;;21.69;36.16
66396;BME280;53207;51.378;-1.342;2023-05-03T01:14:56;101381.64;;;21.87;36.20
66396;BME280;53207;51.378;-1.342;2023-05-03T01:17:28;101379.27;;;21.38;36.15
66396;BME280;53207;51.378;-1.342;2023-05-03T01:20:03;101380.86;;;21.68;36.06
66396;BME280;53207;51.378;-1.342;2023-05-03T01:22:37;101381.90;;;21.62;36.10
66396;BME280;53207;51.378;-1.342;2023-05-03T01:25:09;101381.40;;;21.63;36.14
66396;BME280;53207;51.378;-1.342;2023-05-03T01:27:38;101380.07;;;22.03;36.19
66396;BME280;53207;51.378;-1.342;2023-05-03T01:30:07;101377.89;;;21.58;36.12
66396;BME280;53207;51.378;-1.342;2023-05-03T01:32:48;101377.30;;;21.56;36.09
66396;BME280;53207;51.378;-1.342;2023-05-03T01:35:22;101376.17;;;21.56;36.14
66396;BME280;53207;51.378;-1.342;2023-05-03T01:37:51;101375.27;;;21.57;36.03
66396;BME280;53207;51.378;-1.342;2023-05-03T01:40:18;101377.14;;;21.48;36.20
66396;BME280;53207;51.378;-1.342;2023-05-03T01:42:47;101376.74;;;21.49;36.20
66396;BME280;53207;51.378;-1.342;2023-05-03T01:45:16;101374.33;;;21.67;36.23
66396;BME280;53207;51.378;-1.342;2023-05-03T01:47:44;101374.05;;;21.79;36.33
66396;BME280;53207;51.378;-1.342;2023-05-03T01:50:11;101369.00;;;21.60;36.30
66396;BME280;53207;51.378;-1.342;2023-05-03T01:52:38;101368.90;;;21.33;36.33
66396;BME280;53207;51.378;-1.342;2023-05-03T01:55:06;101368.24;;;21.35;36.31
66396;BME280;53207;51.378;-1.342;2023-05-03T01:57:34;101363.52;;;21.53;36.29
66396;BME280;53207;51.378;-1.342;2023-05-03T02:00:01;101364.15;;;21.49;36.33
66396;BME280;53207;51.378;-1.342;2023-05-03T02:02:28;101364.60;;;21.27;36.32
66396;BME280;53207;51.378;-1.342;2023-05-03T02:04:56;101366.06;;;21.55;36.22
66396;BME280;53207;51.378;-1.342;2023-05-03T02:07:23;101363.21;;;21.25;36.30
66396;BME280;53207;51.378;-1.342;2023-05-03T02:09:50;101361.15;;;21.53;36.22
66396;BME280;53207;51.378;-1.342;2023-05-03T02:12:17;101355.34;;;21.42;36.34
66396;BME280;53207;51.378;-1.342;2023-05-03T02:14:45;101354.49;;;21.29;36.21
66396;BME280;53207;51.378;-1.342;2023-05-03T02:17:12;101351.50;;;21.21;36.28
66396;BME280;53207;51.378;-1.342;2023-05-03T02:19:39;101352.45;;;21.42;36.25
66396;BME280;53207;51.378;-1.342;2023-05-03T02:22:07;101350.43;;;21.38;36.22
66396;BME280;53207;51.378;-1.342;2023-05-03T02:24:34;101349.22;;;21.09;36.35
66396;BME280;53207;51.378;-1.342;2023-05-03T02:27:01;101350.33;;;21.15;36.24
66396;BME280;53207;51.378;-1.342;2023-05-03T02:29:29;101350.42;;;21.63;36.20
66396;BME280;53207;51.378;-1.342;2023-05-03T02:31:56;101351.86;;;21.14;36.26
66396;BME280;53207;51.378;-1.342;2023-05-03T02:34:23;101352.54;;;21.18;36.14
66396;BME280;53207;51.378;-1.342;2023-05-03T02:36:50;101348.04;;;21.13;36.12
66396;BME280;53207;51.378;-1.342;2023-05-03T02:39:18;101347.73;;;21.09;36.20
66396;BME280;53207;51.378;-1.342;2023-05-03T02:41:45;101348.33;;;21.05;36.25
66396;BME280;53207;51.378;-1.342;2023-05-03T02:44:12;101347.31;;;21.21;36.26
66396;BME280;53207;51.378;-1.342;2023-05-03T02:46:40;101348.68;;;21.26;36.15
66396;BME280;53207;51.378;-1.342;2023-05-03T02:49:07;101347.18;;;21.43;36.26
66396;BME280;53207;51.378;-1.342;2023-05-03T02:51:34;101340.82;;;21.29;36.13
66396;BME280;53207;51.378;-1.342;2023-05-03T02:54:01;101339.21;;;21.49;36.14
66396;BME280;53207;51.378;-1.342;2023-05-03T02:56:29;101336.14;;;21.18;36.22
66396;BME280;53207;51.378;-1.342;2023-05-03T02:58:56;101334.02;;;21.46;36.09
66396;BME280;53207;51.378;-1.342;2023-05-03T03:01:23;101335.39;;;20.90;36.28
66396;BME280;53207;51.378;-1.342;2023-05-03T03:03:51;101332.93;;;21.11;36.25
66396;BME280;53207;51.378;-1.342;2023-05-03T03:06:18;101332.16;;;20.92;36.16
66396;BME280;53207;51.378;-1.342;2023-05-03T03:08:45;101329.37;;;20.76;36.42
66396;BME280;53207;51.378;-1.342;2023-05-03T03:11:13;101327.93;;;20.73;36.42
66396;BME280;53207;51.378;-1.342;2023-05-03T03:13:40;101329.56;;;20.80;36.30
66396;BME280;53207;51.378;-1.342;2023-05-03T03:16:07;101331.59;;;20.99;36.30
66396;BME280;53207;51.378;-1.342;2023-05-03T03:18:35;101332.13;;;20.99;36.30
66396;BME280;53207;51.378;-1.342;2023-05-03T03:21:02;101328.27;;;21.00;36.24
66396;BME280;53207;51.378;-1.342;2023-05-03T03:23:29;101329.58;;;21.18;36.29
66396;BME280;53207;51.378;-1.342;2023-05-03T03:25:56;101327.55;;;21.10;36.32
66396;BME280;53207;51.378;-1.342;2023-05-03T03:28:24;101324.89;;;21.24;36.12
66396;BME280;53207;51.378;-1.342;2023-05-03T03:30:51;101320.53;;;20.96;36.20
66396;BME280;53207;51.378;-1.342;2023-05-03T03:33:19;101317.91;;;20.94;36.15
66396;BME280;53207;51.378;-1.342;2023-05-03T03:35:46;101319.03;;;20.72;36.09
66396;BME280;53207;51.378;-1.342;2023-05-03T03:38:13;101315.64;;;21.20;36.09
66396;BME280;53207;51.378;-1.342;2023-05-03T03:40:40;101311.87;;;21.12;36.20
66396;BME280;53207;51.378;-1.342;2023-05-03T03:43:08;101311.71;;;21.13;36.13
66396;BME280;53207;51.378;-1.342;2023-05-03T03:45:35;101310.47;;;20.92;36.09
66396;BME280;53207;51.378;-1.342;2023-05-03T03:48:02;101311.80;;;21.01;36.26
66396;BME280;53207;51.378;-1.342;2023-05-03T03:50:30;101312.94;;;21.05;36.18
66396;BME280;53207;51.378;-1.342;2023-05-03T03:52:57;101313.17;;;20.99;36.25
66396;BME280;53207;51.378;-1.342;2023-05-03T03:55:24;101313.37;;;20.97;36.26
66396;BME280;53207;51.378;-1.342;2023-05-03T03:57:51;101313.51;;;20.95;36.28
66396;BME280;53207;51.378;-1.342;2023-05-03T04:00:19;101312.11;;;20.99;36.16
66396;BME280;53207;51.378;-1.342;2023-05-03T04:02:46;101311.11;;;20.92;36.25
66396;BME280;53207;51.378;-1.342;2023-05-03T04:05:13;101310.96;;;20.84;36.35
66396;BME280;53207;51.378;-1.342;2023-05-03T04:07:41;101302.08;;;20.73;36.16
66396;BME280;53207;51.378;-1.342;2023-05-03T04:10:08;101299.58;;;20.87;36.23
66396;BME280;53207;51.378;-1.342;2023-05-03T04:12:35;101298.97;;;20.61;36.31
66396;BME280;53207;51.378;-1.342;2023-05-03T04:15:03;101295.83;;;20.81;36.26
66396;BME280;53207;51.378;-1.342;2023-05-03T04:17:30;101294.48;;;20.60;36.22
66396;BME280;53207;51.378;-1.342;2023-05-03T04:19:57;101290.03;;;20.81;36.21
66396;BME280;53207;51.378;-1.342;2023-05-03T04:22:24;101291.50;;;20.80;36.25
66396;BME280;53207;51.378;-1.342;2023-05-03T04:24:52;101296.20;;;20.53;36.19
66396;BME280;53207;51.378;-1.342;2023-05-03T04:27:19;101293.21;;;20.96;36.29
66396;BME280;53207;51.378;-1.342;2023-05-03T04:29:46;101293.06;;;20.71;36.25
66396;BME280;53207;51.378;-1.342;2023-05-03T04:32:14;101288.31;;;20.74;36.22
66396;BME280;53207;51.378;-1.342;2023-05-03T04:34:41;101286.72;;;20.71;36.25
66396;BME280;53207;51.378;-1.342;2023-05-03T04:37:08;101283.82;;;20.74;36.19
66396;BME280;53207;51.378;-1.342;2023-05-03T04:39:35;101282.35;;;20.67;36.24
66396;BME280;53207;51.378;-1.342;2023-05-03T04:42:03;101283.02;;;20.58;36.37
66396;BME280;53207;51.378;-1.342;2023-05-03T04:44:31;101281.16;;;20.58;36.33
66396;BME280;53207;51.378;-1.342;2023-05-03T04:46:58;101278.53;;;20.62;36.24
66396;BME280;53207;51.378;-1.342;2023-05-03T04:49:25;101278.37;;;20.66;36.14
66396;BME280;53207;51.378;-1.342;2023-05-03T04:51:53;101283.48;;;20.52;36.32
66396;BME280;53207;51.378;-1.342;2023-05-03T04:54:20;101286.65;;;20.58;36.20
66396;BME280;53207;51.378;-1.342;2023-05-03T04:56:47;101283.05;;;20.63;36.10
66396;BME280;53207;51.378;-1.342;2023-05-03T04:59:15;101284.19;;;20.57;36.21
66396;BME280;53207;51.378;-1.342;2023-05-03T05:01:42;101280.82;;;20.57;36.18
66396;BME280;53207;51.378;-1.342;2023-05-03T05:04:09;101284.35;;;20.80;36.20
66396;BME280;53207;51.378;-1.342;2023-05-03T05:06:37;101284.67;;;20.48;36.25
66396;BME280;53207;51.378;-1.342;2023-05-03T05:09:06;101281.65;;;20.38;36.37
66396;BME280;53207;51.378;-1.342;2023-05-03T05:11:33;101282.47;;;20.52;36.14
66396;BME280;53207;51.378;-1.342;2023-05-03T05:14:00;101284.49;;;20.49;36.18
66396;BME280;53207;51.378;-1.342;2023-05-03T05:16:28;101286.22;;;20.40;36.30
66396;BME280;53207;51.378;-1.342;2023-05-03T05:18:55;101289.47;;;20.31;36.36
66396;BME280;53207;51.378;-1.342;2023-05-03T05:21:22;101287.58;;;20.44;36.17
66396;BME280;53207;51.378;-1.342;2023-05-03T05:23:49;101286.94;;;20.43;36.07
66396;BME280;53207;51.378;-1.342;2023-05-03T05:26:17;101285.57;;;20.47;36.02
66396;BME280;53207;51.378;-1.342;2023-05-03T05:28:44;101289.08;;;20.60;35.89
66396;BME280;53207;51.378;-1.342;2023-05-03T05:31:11;101292.97;;;20.85;35.94
66396;BME280;53207;51.378;-1.342;2023-05-03T05:33:39;101292.72;;;20.63;35.99
66396;BME280;53207;51.378;-1.342;2023-05-03T05:36:06;101296.36;;;20.69;35.97
66396;BME280;53207;51.378;-1.342;2023-05-03T05:38:34;101295.18;;;20.82;35.88
66396;BME280;53207;51.378;-1.342;2023-05-03T05:41:01;101297.53;;;20.86;35.76
66396;BME280;53207;51.378;-1.342;2023-05-03T05:43:28;101299.49;;;21.00;35.69
66396;BME280;53207;51.378;-1.342;2023-05-03T05:45:55;101298.40;;;21.08;35.67
66396;BME280;53207;51.378;-1.342;2023-05-03T05:48:23;101305.58;;;21.24;35.56
66396;BME280;53207;51.378;-1.342;2023-05-03T05:50:50;101310.14;;;21.02;35.65
66396;BME280;53207;51.378;-1.342;2023-05-03T05:53:17;101310.82;;;21.61;35.56
66396;BME280;53207;51.378;-1.342;2023-05-03T05:55:44;101309.72;;;21.40;35.59
66396;BME280;53207;51.378;-1.342;2023-05-03T05:58:12;101310.25;;;21.22;35.76
66396;BME280;53207;51.378;-1.342;2023-05-03T06:00:39;101316.63;;;21.45;35.63
66396;BME280;53207;51.378;-1.342;2023-05-03T06:03:06;101318.53;;;21.11;35.45
66396;BME280;53207;51.378;-1.342;2023-05-03T06:05:34;101320.02;;;21.39;35.37
66396;BME280;53207;51.378;-1.342;2023-05-03T06:08:01;101319.19;;;21.39;35.38
66396;BME280;53207;51.378;-1.342;2023-05-03T06:10:28;101322.57;;;20.94;35.60
66396;BME280;53207;51.378;-1.342;2023-05-03T06:12:55;101326.78;;;21.07;35.45
66396;BME280;53207;51.378;-1.342;2023-05-03T06:15:23;101327.58;;;21.57;35.36
66396;BME280;53207;51.378;-1.342;2023-05-03T06:17:50;101326.93;;;21.38;35.64
66396;BME280;53207;51.378;-1.342;2023-05-03T06:20:17;101322.68;;;21.29;35.38
66396;BME280;53207;51.378;-1.342;2023-05-03T06:22:45;101322.21;;;21.73;35.09
66396;BME280;53207;51.378;-1.342;2023-05-03T06:25:12;101319.05;;;21.24;35.74
66396;BME280;53207;51.378;-1.342;2023-05-03T06:27:39;101317.44;;;21.49;35.47
66396;BME280;53207;51.378;-1.342;2023-05-03T06:30:08;101314.32;;;21.50;34.94
66396;BME280;53207;51.378;-1.342;2023-05-03T06:32:37;101316.14;;;21.37;34.87
66396;BME280;53207;51.378;-1.342;2023-05-03T06:35:04;101312.04;;;21.41;34.80
66396;BME280;53207;51.378;-1.342;2023-05-03T06:37:32;101312.75;;;21.70;34.82
66396;BME280;53207;51.378;-1.342;2023-05-03T06:39:59;101317.36;;;21.52;34.87
66396;BME280;53207;51.378;-1.342;2023-05-03T06:42:27;101318.54;;;21.73;35.04
66396;BME280;53207;51.378;-1.342;2023-05-03T06:44:54;101317.17;;;21.40;35.36
66396;BME280;53207;51.378;-1.342;2023-05-03T06:47:21;101315.96;;;21.78;35.20
66396;BME280;53207;51.378;-1.342;2023-05-03T06:49:49;101315.86;;;21.56;35.28
66396;BME280;53207;51.378;-1.342;2023-05-03T06:52:16;101313.94;;;21.78;35.40
66396;BME280;53207;51.378;-1.342;2023-05-03T06:54:43;101316.22;;;21.54;35.55
66396;BME280;53207;51.378;-1.342;2023-05-03T06:57:10;101316.00;;;21.57;35.59
66396;BME280;53207;51.378;-1.342;2023-05-03T06:59:38;101317.02;;;21.58;35.63
66396;BME280;53207;51.378;-1.342;2023-05-03T07:02:05;101320.29;;;21.57;35.56
66396;BME280;53207;51.378;-1.342;2023-05-03T07:04:32;101323.94;;;21.81;35.53
66396;BME280;53207;51.378;-1.342;2023-05-03T07:06:59;101324.49;;;21.57;35.60
66396;BME280;53207;51.378;-1.342;2023-05-03T07:09:27;101320.21;;;21.58;35.62
66396;BME280;53207;51.378;-1.342;2023-05-03T07:11:54;101322.96;;;21.60;35.63
66396;BME280;53207;51.378;-1.342;2023-05-03T07:14:21;101322.35;;;21.79;35.60
66396;BME280;53207;51.378;-1.342;2023-05-03T07:16:53;101322.47;;;21.56;35.68
66396;BME280;53207;51.378;-1.342;2023-05-03T07:19:21;101318.95;;;21.60;35.54
66396;BME280;53207;51.378;-1.342;2023-05-03T07:21:48;101319.90;;;21.61;35.40
66396;BME280;53207;51.378;-1.342;2023-05-03T07:24:15;101319.52;;;21.61;35.37
66396;BME280;53207;51.378;-1.342;2023-05-03T07:26:43;101321.21;;;21.58;35.38
66396;BME280;53207;51.378;-1.342;2023-05-03T07:29:10;101320.51;;;21.62;35.23
66396;BME280;53207;51.378;-1.342;2023-05-03T07:31:37;101318.04;;;21.60;35.17
66396;BME280;53207;51.378;-1.342;2023-05-03T07:34:05;101318.76;;;21.63;35.03
66396;BME280;53207;51.378;-1.342;2023-05-03T07:36:32;101313.49;;;21.56;35.05
66396;BME280;53207;51.378;-1.342;2023-05-03T07:38:59;101309.53;;;21.81;34.98
66396;BME280;53207;51.378;-1.342;2023-05-03T07:41:26;101307.90;;;21.79;34.94
66396;BME280;53207;51.378;-1.342;2023-05-03T07:43:54;101303.63;;;21.74;34.96
66396;BME280;53207;51.378;-1.342;2023-05-03T07:46:21;101302.71;;;21.27;34.91
66396;BME280;53207;51.378;-1.342;2023-05-03T07:48:48;101300.22;;;21.76;34.79
66396;BME280;53207;51.378;-1.342;2023-05-03T07:51:16;101298.23;;;21.77;34.75
66396;BME280;53207;51.378;-1.342;2023-05-03T07:53:43;101299.16;;;21.54;34.63
66396;BME280;53207;51.378;-1.342;2023-05-03T07:56:10;101295.61;;;21.71;34.69
66396;BME280;53207;51.378;-1.342;2023-05-03T07:58:38;101294.13;;;21.45;34.72
66396;BME280;53207;51.378;-1.342;2023-05-03T08:01:05;101296.42;;;21.50;34.63
66396;BME280;53207;51.378;-1.342;2023-05-03T08:03:32;101295.67;;;21.47;34.58
66396;BME280;53207;51.378;-1.342;2023-05-03T08:06:00;101295.40;;;21.73;34.44
66396;BME280;53207;51.378;-1.342;2023-05-03T08:08:27;101292.62;;;21.95;34.36
66396;BME280;53207;51.378;-1.342;2023-05-03T08:10:54;101293.22;;;21.50;34.33
66396;BME280;53207;51.378;-1.342;2023-05-03T08:13:21;101292.37;;;21.45;34.39
66396;BME280;53207;51.378;-1.342;2023-05-03T08:15:49;101294.12;;;21.66;34.37
66396;BME280;53207;51.378;-1.342;2023-05-03T08:18:16;101293.45;;;21.75;34.26
66396;BME280;53207;51.378;-1.342;2023-05-03T08:20:43;101289.58;;;21.74;34.27
66396;BME280;53207;51.378;-1.342;2023-05-03T08:23:10;101289.12;;;21.52;34.25
66396;BME280;53207;51.378;-1.342;2023-05-03T08:25:38;101286.84;;;21.50;34.23
66396;BME280;53207;51.378;-1.342;2023-05-03T08:28:05;101288.85;;;21.47;34.24
66396;BME280;53207;51.378;-1.342;2023-05-03T08:30:33;101286.22;;;21.50;34.21
66396;BME280;53207;51.378;-1.342;2023-05-03T08:33:00;101283.93;;;21.50;34.22
66396;BME280;53207;51.378;-1.342;2023-05-03T08:35:27;101283.13;;;21.55;34.14
66396;BME280;53207;51.378;-1.342;2023-05-03T08:37:54;101276.64;;;21.49;34.20
66396;BME280;53207;51.378;-1.342;2023-05-03T08:40:22;101275.32;;;21.46;34.23
66396;BME280;53207;51.378;-1.342;2023-05-03T08:42:49;101276.40;;;21.73;34.21
66396;BME280;53207;51.378;-1.342;2023-05-03T08:45:17;101275.09;;;21.49;34.23
66396;BME280;53207;51.378;-1.342;2023-05-03T08:47:44;101275.70;;;21.47;34.20
66396;BME280;53207;51.378;-1.342;2023-05-03T08:50:13;101274.18;;;21.49;34.11
66396;BME280;53207;51.378;-1.342;2023-05-03T08:52:42;101274.62;;;21.39;34.22
66396;BME280;53207;51.378;-1.342;2023-05-03T08:55:10;101276.44;;;21.42;34.19
66396;BME280;53207;51.378;-1.342;2023-05-03T08:57:37;101273.30;;;21.72;34.08
66396;BME280;53207;51.378;-1.342;2023-05-03T09:00:05;101271.60;;;21.48;34.02
66396;BME280;53207;51.378;-1.342;2023-05-03T09:02:33;101265.24;;;21.75;33.94
66396;BME280;53207;51.378;-1.342;2023-05-03T09:05:00;101265.56;;;21.47;33.96
66396;BME280;53207;51.378;-1.342;2023-05-03T09:07:28;101263.45;;;21.50;33.89
66396;BME280;53207;51.378;-1.342;2023-05-03T09:09:55;101264.78;;;21.50;33.90
66396;BME280;53207;51.378;-1.342;2023-05-03T09:12:33;101260.20;;;21.48;33.92
66396;BME280;53207;51.378;-1.342;2023-05-03T09:15:01;101261.28;;;21.46;33.91
66396;BME280;53207;51.378;-1.342;2023-05-03T09:17:28;101256.21;;;21.46;33.92
66396;BME280;53207;51.378;-1.342;2023-05-03T09:19:57;101257.59;;;21.69;33.86
66396;BME280;53207;51.378;-1.342;2023-05-03T09:22:26;101252.72;;;21.45;33.85
66396;BME280;53207;51.378;-1.342;2023-05-03T09:24:55;101257.18;;;21.65;33.86
66396;BME280;53207;51.378;-1.342;2023-05-03T09:27:24;101251.84;;;21.43;33.76
66396;BME280;53207;51.378;-1.342;2023-05-03T09:29:52;101252.69;;;21.40;33.77
66396;BME280;53207;51.378;-1.342;2023-05-03T09:32:21;101252.87;;;21.48;33.71
66396;BME280;53207;51.378;-1.342;2023-05-03T09:34:48;101257.20;;;21.69;33.73
66396;BME280;53207;51.378;-1.342;2023-05-03T09:37:15;101252.68;;;21.44;33.67
66396;BME280;53207;51.378;-1.342;2023-05-03T09:39:45;101256.21;;;21.68;33.68
66396;BME280;53207;51.378;-1.342;2023-05-03T09:42:14;101255.53;;;21.71;33.59
66396;BME280;53207;51.378;-1.342;2023-05-03T09:44:43;101251.58;;;21.69;33.61
66396;BME280;53207;51.378;-1.342;2023-05-03T09:47:11;101245.56;;;21.56;33.35
66396;BME280;53207;51.378;-1.342;2023-05-03T09:49:38;101247.13;;;21.60;33.32
66396;BME280;53207;51.378;-1.342;2023-05-03T09:52:06;101251.92;;;21.54;33.34
66396;BME280;53207;51.378;-1.342;2023-05-03T09:54:34;101244.18;;;21.55;33.34
66396;BME280;53207;51.378;-1.342;2023-05-03T09:57:02;101243.96;;;21.53;33.27
66396;BME280;53207;51.378;-1.342;2023-05-03T09:59:30;101245.79;;;21.73;33.25
66396;BME280;53207;51.378;-1.342;2023-05-03T10:02:01;101247.53;;;21.63;33.16
66396;BME280;53207;51.378;-1.342;2023-05-03T10:04:32;101247.34;;;21.86;33.13
66396;BME280;53207;51.378;-1.342;2023-05-03T10:07:03;101245.79;;;21.58;33.21
66396;BME280;53207;51.378;-1.342;2023-05-03T10:09:35;101240.58;;;21.57;33.17
66396;BME280;53207;51.378;-1.342;2023-05-03T10:12:07;101244.29;;;22.06;33.17
66396;BME280;53207;51.378;-1.342;2023-05-03T10:14:35;101238.40;;;21.79;33.17
66396;BME280;53207;51.378;-1.342;2023-05-03T10:17:04;101241.73;;;21.61;33.05
66396;BME280;53207;51.378;-1.342;2023-05-03T10:19:36;101238.94;;;21.64;33.09
66396;BME280;53207;51.378;-1.342;2023-05-03T10:22:06;101238.27;;;21.89;33.02
66396;BME280;53207;51.378;-1.342;2023-05-03T10:24:36;101238.69;;;21.65;33.07
66396;BME280;53207;51.378;-1.342;2023-05-03T10:27:06;101232.62;;;21.74;32.96
66396;BME280;53207;51.378;-1.342;2023-05-03T10:30:07;101231.97;;;21.71;32.98
66396;BME280;53207;51.378;-1.342;2023-05-03T10:32:35;101220.85;;;21.73;32.98
66396;BME280;53207;51.378;-1.342;2023-05-03T10:35:06;101220.37;;;21.77;32.93
66396;BME280;53207;51.378;-1.342;2023-05-03T10:37:34;101218.67;;;21.79;32.89
66396;BME280;53207;51.378;-1.342;2023-05-03T10:40:07;101212.19;;;21.89;33.05
66396;BME280;53207;51.378;-1.342;2023-05-03T10:42:36;101205.81;;;22.17;32.97
66396;BME280;53207;51.378;-1.342;2023-05-03T10:45:06;101203.50;;;21.55;32.84
66396;BME280;53207;51.378;-1.342;2023-05-03T10:47:33;101208.09;;;21.84;32.83
66396;BME280;53207;51.378;-1.342;2023-05-03T10:50:34;101196.54;;;21.83;32.87
66396;BME280;53207;51.378;-1.342;2023-05-03T10:53:01;101196.06;;;21.87;32.81
66396;BME280;53207;51.378;-1.342;2023-05-03T10:55:28;101191.00;;;21.89;32.78
66396;BME280;53207;51.378;-1.342;2023-05-03T10:57:57;101187.53;;;21.84;32.82
66396;BME280;53207;51.378;-1.342;2023-05-03T11:00:31;101181.24;;;21.81;32.89
66396;BME280;53207;51.378;-1.342;2023-05-03T11:03:11;101190.95;;;21.64;32.77
66396;BME280;53207;51.378;-1.342;2023-05-03T11:05:42;101188.57;;;21.78;32.86
66396;BME280;53207;51.378;-1.342;2023-05-03T11:08:11;101182.97;;;21.84;32.78
66396;BME280;53207;51.378;-1.342;2023-05-03T11:10:39;101178.45;;;21.84;32.78
66396;BME280;53207;51.378;-1.342;2023-05-03T11:13:06;101182.37;;;21.85;32.75
66396;BME280;53207;51.378;-1.342;2023-05-03T11:15:34;101179.46;;;21.84;32.75
66396;BME280;53207;51.378;-1.342;2023-05-03T11:18:02;101173.62;;;21.87;32.69
66396;BME280;53207;51.378;-1.342;2023-05-03T11:20:31;101169.10;;;21.85;32.71
66396;BME280;53207;51.378;-1.342;2023-05-03T11:22:58;101168.84;;;21.77;32.80
66396;BME280;53207;51.378;-1.342;2023-05-03T11:25:25;101160.51;;;21.74;32.70
66396;BME280;53207;51.378;-1.342;2023-05-03T11:27:53;101160.63;;;21.73;32.79
66396;BME280;53207;51.378;-1.342;2023-05-03T11:30:20;101156.71;;;21.75;32.76
66396;BME280;53207;51.378;-1.342;2023-05-03T11:32:47;101156.07;;;21.83;32.63
66396;BME280;53207;51.378;-1.342;2023-05-03T11:35:15;101148.89;;;21.53;32.69
66396;BME280;53207;51.378;-1.342;2023-05-03T11:37:42;101147.21;;;21.86;32.60
66396;BME280;53207;51.378;-1.342;2023-05-03T11:40:14;101142.52;;;21.90;32.56
66396;BME280;53207;51.378;-1.342;2023-05-03T11:42:58;101137.70;;;21.87;32.63
66396;BME280;53207;51.378;-1.342;2023-05-03T11:45:26;101135.01;;;22.10;32.57
66396;BME280;53207;51.378;-1.342;2023-05-03T11:47:55;101134.01;;;21.90;32.57
66396;BME280;53207;51.378;-1.342;2023-05-03T11:50:43;101136.16;;;21.82;32.66
66396;BME280;53207;51.378;-1.342;2023-05-03T11:53:11;101132.76;;;21.95;32.48
66396;BME280;53207;51.378;-1.342;2023-05-03T11:55:40;101123.15;;;21.98;32.45
66396;BME280;53207;51.378;-1.342;2023-05-03T11:58:08;101114.33;;;21.93;32.51
66396;BME280;53207;51.378;-1.342;2023-05-03T12:00:38;101114.28;;;21.63;32.55
66396;BME280;53207;51.378;-1.342;2023-05-03T12:03:09;101103.54;;;21.93;32.52
66396;BME280;53207;51.378;-1.342;2023-05-03T12:05:36;101101.16;;;22.19;32.45
66396;BME280;53207;51.378;-1.342;2023-05-03T12:08:04;101097.13;;;21.89;32.45
66396;BME280;53207;51.378;-1.342;2023-05-03T12:10:32;101096.23;;;21.86;32.50
66396;BME280;53207;51.378;-1.342;2023-05-03T12:12:59;101098.26;;;21.98;32.37
66396;BME280;53207;51.378;-1.342;2023-05-03T12:15:27;101092.58;;;21.95;32.43
66396;BME280;53207;51.378;-1.342;2023-05-03T12:17:56;101090.73;;;21.72;32.36
66396;BME280;53207;51.378;-1.342;2023-05-03T12:20:25;101087.75;;;21.99;32.39
66396;BME280;53207;51.378;-1.342;2023-05-03T12:22:54;101080.13;;;22.05;32.36
66396;BME280;53207;51.378;-1.342;2023-05-03T12:25:22;101081.16;;;22.03;32.39
66396;BME280;53207;51.378;-1.342;2023-05-03T12:27:49;101074.75;;;22.09;32.28
66396;BME280;53207;51.378;-1.342;2023-05-03T12:30:18;101077.97;;;22.02;32.36
66396;BME280;53207;51.378;-1.342;2023-05-03T12:32:45;101068.15;;;22.14;32.23
66396;BME280;53207;51.378;-1.342;2023-05-03T12:35:12;101075.56;;;21.83;32.31
66396;BME280;53207;51.378;-1.342;2023-05-03T12:37:45;101075.53;;;21.86;32.24
66396;BME280;53207;51.378;-1.342;2023-05-03T12:40:13;101067.10;;;22.14;32.19
66396;BME280;53207;51.378;-1.342;2023-05-03T12:42:40;101068.89;;;22.20;32.16
66396;BME280;53207;51.378;-1.342;2023-05-03T12:45:09;101057.55;;;22.12;32.24